sensor_id;sensor_type;location;lat;lon;timestamp;P1;durP1;ratioP1;P2;durP2;ratioP2
37845;SDS011;23686;49.828;8.702;2023-01-29T00:02:19;10.73;;;8.15;;
37845;SDS011;23686;49.828;8.702;2023-01-29T00:04:45;10.43;;;7.35;;
37845;SDS011;23686;49.828;8.702;2023-01-29T00:07:10;10.95;;;7.32;;
37845;SDS011;23686;49.828;8.702;2023-01-29T00:09:36;13.02;;;8.07;;
37845;SDS011;23686;49.828;8.702;2023-01-29T00:12:01;10.45;;;7.32;;
37845;SDS011;23686;49.828;8.702;2023-01-29T00:14:27;10.10;;;7.03;;
37845;SDS011;23686;49.828;8.702;2023-01-29T00:16:53;9.68;;;7.28;;
37845;SDS011;23686;49.828;8.702;2023-01-29T00:19:18;14.07;;;7.82;;
37845;SDS011;23686;49.828;8.702;2023-01-29T00:21:44;11.63;;;7.63;;
37845;SDS011;23686;49.828;8.702;2023-01-29T00:24:10;12.95;;;7.60;;
37845;SDS011;23686;49.828;8.702;2023-01-29T00:26:37;10.73;;;7.18;;
37845;SDS011;23686;49.828;8.702;2023-01-29T00:29:06;15.55;;;8.60;;
37845;SDS011;23686;49.828;8.702;2023-01-29T00:31:31;12.95;;;8.65;;
37845;SDS011;23686;49.828;8.702;2023-01-29T00:33:57;12.70;;;7.82;;
37845;SDS011;23686;49.828;8.702;2023-01-29T00:36:23;10.48;;;6.68;;
37845;SDS011;23686;49.828;8.702;2023-01-29T00:38:53;12.05;;;8.32;;
37845;SDS011;23686;49.828;8.702;2023-01-29T00:41:25;12.20;;;8.60;;
37845;SDS011;23686;49.828;8.702;2023-01-29T00:44:10;11.03;;;7.97;;
37845;SDS011;23686;49.828;8.702;2023-01-29T00:46:55;12.57;;;7.82;;
37845;SDS011;23686;49.828;8.702;2023-01-29T00:49:21;14.07;;;7.97;;
37845;SDS011;23686;49.828;8.702;2023-01-29T00:51:47;15.88;;;8.05;;
37845;SDS011;23686;49.828;8.702;2023-01-29T00:54:32;10.90;;;7.22;;
37845;SDS011;23686;49.828;8.702;2023-01-29T00:56:59;17.00;;;8.32;;
37845;SDS011;23686;49.828;8.702;2023-01-29T00:59:25;10.88;;;8.07;;
37845;SDS011;23686;49.828;8.702;2023-01-29T01:01:51;12.98;;;8.68;;
37845;SDS011;23686;49.828;8.702;2023-01-29T01:04:35;11.13;;;7.75;;
37845;SDS011;23686;49.828;8.702;2023-01-29T01:07:00;13.05;;;7.85;;
37845;SDS011;23686;49.828;8.702;2023-01-29T01:09:26;12.38;;;7.63;;
37845;SDS011;23686;49.828;8.702;2023-01-29T01:12:10;12.15;;;7.70;;
37845;SDS011;23686;49.828;8.702;2023-01-29T01:14:35;13.38;;;8.60;;
37845;SDS011;23686;49.828;8.702;2023-01-29T01:17:01;12.40;;;8.10;;
37845;SDS011;23686;49.828;8.702;2023-01-29T01:19:26;12.60;;;7.97;;
37845;SDS011;23686;49.828;8.702;2023-01-29T01:21:52;13.25;;;8.27;;
37845;SDS011;23686;49.828;8.702;2023-01-29T01:24:17;13.52;;;8.63;;
37845;SDS011;23686;49.828;8.702;2023-01-29T01:26:44;13.00;;;7.95;;
37845;SDS011;23686;49.828;8.702;2023-01-29T01:29:10;13.70;;;8.60;;
37845;SDS011;23686;49.828;8.702;2023-01-29T01:31:35;12.30;;;8.07;;
37845;SDS011;23686;49.828;8.702;2023-01-29T01:34:01;11.98;;;8.55;;
37845;SDS011;23686;49.828;8.702;2023-01-29T01:36:26;14.25;;;8.25;;
37845;SDS011;23686;49.828;8.702;2023-01-29T01:38:52;12.85;;;8.15;;
37845;SDS011;23686;49.828;8.702;2023-01-29T01:41:19;11.20;;;7.88;;
37845;SDS011;23686;49.828;8.702;2023-01-29T01:46:33;10.63;;;7.35;;
37845;SDS011;23686;49.828;8.702;2023-01-29T01:49:08;11.60;;;7.45;;
37845;SDS011;23686;49.828;8.702;2023-01-29T01:51:42;12.13;;;6.97;;
37845;SDS011;23686;49.828;8.702;2023-01-29T01:54:18;10.65;;;7.80;;
37845;SDS011;23686;49.828;8.702;2023-01-29T01:56:54;15.07;;;8.15;;
37845;SDS011;23686;49.828;8.702;2023-01-29T01:59:28;11.90;;;8.23;;
37845;SDS011;23686;49.828;8.702;2023-01-29T02:04:23;10.13;;;7.40;;
37845;SDS011;23686;49.828;8.702;2023-01-29T02:07:10;10.95;;;7.85;;
37845;SDS011;23686;49.828;8.702;2023-01-29T02:10:03;12.10;;;8.38;;
37845;SDS011;23686;49.828;8.702;2023-01-29T02:12:33;12.93;;;8.15;;
37845;SDS011;23686;49.828;8.702;2023-01-29T02:15:01;12.38;;;8.50;;
37845;SDS011;23686;49.828;8.702;2023-01-29T02:17:27;10.40;;;7.55;;
37845;SDS011;23686;49.828;8.702;2023-01-29T02:20:08;10.43;;;7.18;;
37845;SDS011;23686;49.828;8.702;2023-01-29T02:31:05;12.13;;;7.47;;
37845;SDS011;23686;49.828;8.702;2023-01-29T02:41:36;13.40;;;8.15;;
37845;SDS011;23686;49.828;8.702;2023-01-29T02:49:30;15.70;;;8.77;;
37845;SDS011;23686;49.828;8.702;2023-01-29T02:54:41;13.30;;;9.18;;
37845;SDS011;23686;49.828;8.702;2023-01-29T02:57:29;13.05;;;8.65;;
37845;SDS011;23686;49.828;8.702;2023-01-29T03:00:02;13.43;;;8.77;;
37845;SDS011;23686;49.828;8.702;2023-01-29T03:02:36;13.02;;;8.05;;
37845;SDS011;23686;49.828;8.702;2023-01-29T03:05:08;14.07;;;8.80;;
37845;SDS011;23686;49.828;8.702;2023-01-29T03:07:40;12.40;;;8.48;;
37845;SDS011;23686;49.828;8.702;2023-01-29T03:10:35;12.43;;;8.45;;
37845;SDS011;23686;49.828;8.702;2023-01-29T03:13:05;14.88;;;8.77;;
37845;SDS011;23686;49.828;8.702;2023-01-29T03:15:40;13.95;;;9.50;;
37845;SDS011;23686;49.828;8.702;2023-01-29T03:18:13;12.55;;;9.18;;
37845;SDS011;23686;49.828;8.702;2023-01-29T03:20:46;12.88;;;8.02;;
37845;SDS011;23686;49.828;8.702;2023-01-29T03:23:18;12.00;;;8.65;;
37845;SDS011;23686;49.828;8.702;2023-01-29T03:25:51;15.15;;;8.63;;
37845;SDS011;23686;49.828;8.702;2023-01-29T03:28:39;14.57;;;9.20;;
37845;SDS011;23686;49.828;8.702;2023-01-29T03:31:26;13.38;;;8.50;;
37845;SDS011;23686;49.828;8.702;2023-01-29T03:34:12;12.15;;;7.95;;
37845;SDS011;23686;49.828;8.702;2023-01-29T03:37:00;11.60;;;7.18;;
37845;SDS011;23686;49.828;8.702;2023-01-29T03:39:32;12.43;;;8.13;;
37845;SDS011;23686;49.828;8.702;2023-01-29T03:42:11;12.18;;;7.55;;
37845;SDS011;23686;49.828;8.702;2023-01-29T03:47:19;12.27;;;7.88;;
37845;SDS011;23686;49.828;8.702;2023-01-29T03:52:58;10.20;;;7.57;;
37845;SDS011;23686;49.828;8.702;2023-01-29T03:55:51;8.88;;;6.50;;
37845;SDS011;23686;49.828;8.702;2023-01-29T04:01:00;11.25;;;7.85;;
37845;SDS011;23686;49.828;8.702;2023-01-29T04:03:30;12.70;;;7.63;;
37845;SDS011;23686;49.828;8.702;2023-01-29T04:06:08;13.25;;;8.65;;
37845;SDS011;23686;49.828;8.702;2023-01-29T04:11:23;11.65;;;7.70;;
37845;SDS011;23686;49.828;8.702;2023-01-29T04:13:49;9.10;;;6.93;;
37845;SDS011;23686;49.828;8.702;2023-01-29T04:16:17;11.35;;;7.38;;
37845;SDS011;23686;49.828;8.702;2023-01-29T04:18:47;14.80;;;8.43;;
37845;SDS011;23686;49.828;8.702;2023-01-29T04:21:13;9.65;;;6.32;;
37845;SDS011;23686;49.828;8.702;2023-01-29T04:23:40;10.48;;;6.88;;
37845;SDS011;23686;49.828;8.702;2023-01-29T04:26:17;10.63;;;7.10;;
37845;SDS011;23686;49.828;8.702;2023-01-29T04:31:44;10.27;;;7.30;;
37845;SDS011;23686;49.828;8.702;2023-01-29T04:34:47;10.23;;;7.50;;
37845;SDS011;23686;49.828;8.702;2023-01-29T04:37:17;9.20;;;6.55;;
37845;SDS011;23686;49.828;8.702;2023-01-29T04:39:55;9.25;;;7.03;;
37845;SDS011;23686;49.828;8.702;2023-01-29T04:45:18;10.32;;;7.45;;
37845;SDS011;23686;49.828;8.702;2023-01-29T04:51:05;9.48;;;6.93;;
37845;SDS011;23686;49.828;8.702;2023-01-29T04:58:54;12.18;;;7.90;;
37845;SDS011;23686;49.828;8.702;2023-01-29T05:01:23;12.32;;;7.97;;
37845;SDS011;23686;49.828;8.702;2023-01-29T05:03:53;10.93;;;7.40;;
37845;SDS011;23686;49.828;8.702;2023-01-29T05:06:21;11.90;;;7.72;;
37845;SDS011;23686;49.828;8.702;2023-01-29T05:08:48;10.50;;;7.05;;
37845;SDS011;23686;49.828;8.702;2023-01-29T05:11:15;12.55;;;7.97;;
37845;SDS011;23686;49.828;8.702;2023-01-29T05:13:42;10.65;;;7.80;;
37845;SDS011;23686;49.828;8.702;2023-01-29T05:16:21;10.43;;;7.22;;
37845;SDS011;23686;49.828;8.702;2023-01-29T05:18:50;13.68;;;8.00;;
37845;SDS011;23686;49.828;8.702;2023-01-29T05:21:16;12.18;;;7.65;;
37845;SDS011;23686;49.828;8.702;2023-01-29T05:23:43;13.30;;;7.68;;
37845;SDS011;23686;49.828;8.702;2023-01-29T05:26:17;13.52;;;8.30;;
37845;SDS011;23686;49.828;8.702;2023-01-29T05:29:02;10.00;;;7.38;;
37845;SDS011;23686;49.828;8.702;2023-01-29T05:31:28;15.43;;;7.53;;
37845;SDS011;23686;49.828;8.702;2023-01-29T05:33:53;9.95;;;7.00;;
37845;SDS011;23686;49.828;8.702;2023-01-29T05:36:19;9.40;;;7.55;;
37845;SDS011;23686;49.828;8.702;2023-01-29T05:38:45;9.38;;;6.63;;
37845;SDS011;23686;49.828;8.702;2023-01-29T05:41:10;9.10;;;6.68;;
37845;SDS011;23686;49.828;8.702;2023-01-29T05:43:36;11.43;;;7.28;;
37845;SDS011;23686;49.828;8.702;2023-01-29T05:46:01;9.05;;;6.82;;
37845;SDS011;23686;49.828;8.702;2023-01-29T05:48:28;15.35;;;7.47;;
37845;SDS011;23686;49.828;8.702;2023-01-29T05:51:01;11.38;;;8.05;;
37845;SDS011;23686;49.828;8.702;2023-01-29T05:53:28;13.07;;;7.40;;
37845;SDS011;23686;49.828;8.702;2023-01-29T05:55:54;8.50;;;6.75;;
37845;SDS011;23686;49.828;8.702;2023-01-29T05:58:23;9.32;;;7.03;;
37845;SDS011;23686;49.828;8.702;2023-01-29T06:00:48;11.48;;;8.10;;
37845;SDS011;23686;49.828;8.702;2023-01-29T06:03:14;9.98;;;8.07;;
37845;SDS011;23686;49.828;8.702;2023-01-29T06:05:39;11.30;;;8.07;;
37845;SDS011;23686;49.828;8.702;2023-01-29T06:08:05;12.27;;;8.02;;
37845;SDS011;23686;49.828;8.702;2023-01-29T06:10:31;12.20;;;8.30;;
37845;SDS011;23686;49.828;8.702;2023-01-29T06:12:57;10.02;;;7.85;;
37845;SDS011;23686;49.828;8.702;2023-01-29T06:15:22;11.23;;;8.10;;
37845;SDS011;23686;49.828;8.702;2023-01-29T06:17:51;11.25;;;8.05;;
37845;SDS011;23686;49.828;8.702;2023-01-29T06:20:17;14.65;;;8.15;;
37845;SDS011;23686;49.828;8.702;2023-01-29T06:22:43;12.35;;;8.45;;
37845;SDS011;23686;49.828;8.702;2023-01-29T06:25:08;11.43;;;8.07;;
37845;SDS011;23686;49.828;8.702;2023-01-29T06:27:34;13.30;;;8.93;;
37845;SDS011;23686;49.828;8.702;2023-01-29T06:29:59;12.23;;;8.85;;
37845;SDS011;23686;49.828;8.702;2023-01-29T06:32:26;10.43;;;7.45;;
37845;SDS011;23686;49.828;8.702;2023-01-29T06:34:51;16.88;;;8.15;;
37845;SDS011;23686;49.828;8.702;2023-01-29T06:37:17;15.70;;;9.23;;
37845;SDS011;23686;49.828;8.702;2023-01-29T06:39:42;11.55;;;8.25;;
37845;SDS011;23686;49.828;8.702;2023-01-29T06:42:08;15.55;;;8.13;;
37845;SDS011;23686;49.828;8.702;2023-01-29T06:44:35;10.57;;;7.70;;
37845;SDS011;23686;49.828;8.702;2023-01-29T06:47:00;12.63;;;8.23;;
37845;SDS011;23686;49.828;8.702;2023-01-29T06:49:26;10.65;;;8.00;;
37845;SDS011;23686;49.828;8.702;2023-01-29T06:51:52;12.95;;;8.35;;
37845;SDS011;23686;49.828;8.702;2023-01-29T06:54:18;11.25;;;8.18;;
37845;SDS011;23686;49.828;8.702;2023-01-29T06:56:43;11.52;;;7.85;;
37845;SDS011;23686;49.828;8.702;2023-01-29T06:59:09;11.00;;;8.38;;
37845;SDS011;23686;49.828;8.702;2023-01-29T07:01:37;12.85;;;8.85;;
37845;SDS011;23686;49.828;8.702;2023-01-29T07:04:06;15.63;;;9.30;;
37845;SDS011;23686;49.828;8.702;2023-01-29T07:06:31;14.07;;;9.95;;
37845;SDS011;23686;49.828;8.702;2023-01-29T07:08:57;16.48;;;11.50;;
37845;SDS011;23686;49.828;8.702;2023-01-29T07:11:22;19.70;;;12.82;;
37845;SDS011;23686;49.828;8.702;2023-01-29T07:13:48;22.48;;;12.55;;
37845;SDS011;23686;49.828;8.702;2023-01-29T07:16:13;23.35;;;13.90;;
37845;SDS011;23686;49.828;8.702;2023-01-29T07:18:39;19.27;;;12.63;;
37845;SDS011;23686;49.828;8.702;2023-01-29T07:21:05;17.80;;;11.38;;
37845;SDS011;23686;49.828;8.702;2023-01-29T07:23:32;17.17;;;10.55;;
37845;SDS011;23686;49.828;8.702;2023-01-29T07:26:02;17.77;;;10.68;;
37845;SDS011;23686;49.828;8.702;2023-01-29T07:28:28;18.63;;;11.30;;
37845;SDS011;23686;49.828;8.702;2023-01-29T07:30:57;16.63;;;10.82;;
37845;SDS011;23686;49.828;8.702;2023-01-29T07:33:23;14.60;;;10.25;;
37845;SDS011;23686;49.828;8.702;2023-01-29T07:35:49;15.93;;;10.27;;
37845;SDS011;23686;49.828;8.702;2023-01-29T07:38:14;14.20;;;9.90;;
37845;SDS011;23686;49.828;8.702;2023-01-29T07:40:40;20.48;;;10.88;;
37845;SDS011;23686;49.828;8.702;2023-01-29T07:43:06;16.02;;;10.52;;
37845;SDS011;23686;49.828;8.702;2023-01-29T07:45:32;15.88;;;10.65;;
37845;SDS011;23686;49.828;8.702;2023-01-29T07:47:59;14.20;;;10.05;;
37845;SDS011;23686;49.828;8.702;2023-01-29T07:50:25;15.43;;;10.73;;
37845;SDS011;23686;49.828;8.702;2023-01-29T07:52:54;15.32;;;9.70;;
37845;SDS011;23686;49.828;8.702;2023-01-29T07:57:45;12.88;;;8.48;;
37845;SDS011;23686;49.828;8.702;2023-01-29T08:00:11;12.90;;;8.82;;
37845;SDS011;23686;49.828;8.702;2023-01-29T08:02:44;35.03;;;22.92;;
37845;SDS011;23686;49.828;8.702;2023-01-29T08:05:10;13.75;;;9.75;;
37845;SDS011;23686;49.828;8.702;2023-01-29T08:07:35;42.28;;;24.13;;
37845;SDS011;23686;49.828;8.702;2023-01-29T08:10:01;32.42;;;18.40;;
37845;SDS011;23686;49.828;8.702;2023-01-29T08:12:26;13.88;;;9.75;;
37845;SDS011;23686;49.828;8.702;2023-01-29T08:14:52;12.73;;;9.38;;
37845;SDS011;23686;49.828;8.702;2023-01-29T08:17:17;15.40;;;10.57;;
37845;SDS011;23686;49.828;8.702;2023-01-29T08:19:43;14.10;;;9.90;;
37845;SDS011;23686;49.828;8.702;2023-01-29T08:22:08;13.93;;;10.25;;
37845;SDS011;23686;49.828;8.702;2023-01-29T08:24:34;13.15;;;9.65;;
37845;SDS011;23686;49.828;8.702;2023-01-29T08:27:07;13.65;;;9.07;;
37845;SDS011;23686;49.828;8.702;2023-01-29T08:29:33;16.25;;;10.00;;
37845;SDS011;23686;49.828;8.702;2023-01-29T08:31:59;13.95;;;9.45;;
37845;SDS011;23686;49.828;8.702;2023-01-29T08:34:25;15.18;;;9.50;;
37845;SDS011;23686;49.828;8.702;2023-01-29T08:36:50;14.27;;;10.30;;
37845;SDS011;23686;49.828;8.702;2023-01-29T08:39:17;14.23;;;10.63;;
37845;SDS011;23686;49.828;8.702;2023-01-29T08:41:42;12.50;;;10.20;;
37845;SDS011;23686;49.828;8.702;2023-01-29T08:44:08;10.48;;;8.23;;
37845;SDS011;23686;49.828;8.702;2023-01-29T08:46:34;14.68;;;9.65;;
37845;SDS011;23686;49.828;8.702;2023-01-29T08:51:28;11.98;;;8.95;;
37845;SDS011;23686;49.828;8.702;2023-01-29T08:53:53;16.45;;;10.82;;
37845;SDS011;23686;49.828;8.702;2023-01-29T08:56:19;16.48;;;10.23;;
37845;SDS011;23686;49.828;8.702;2023-01-29T08:58:45;14.20;;;9.52;;
37845;SDS011;23686;49.828;8.702;2023-01-29T09:01:11;10.85;;;8.75;;
37845;SDS011;23686;49.828;8.702;2023-01-29T09:03:37;11.48;;;8.82;;
37845;SDS011;23686;49.828;8.702;2023-01-29T09:08:52;13.77;;;9.63;;
37845;SDS011;23686;49.828;8.702;2023-01-29T09:11:17;12.75;;;9.90;;
37845;SDS011;23686;49.828;8.702;2023-01-29T09:13:43;13.80;;;10.45;;
37845;SDS011;23686;49.828;8.702;2023-01-29T09:16:09;12.38;;;10.07;;
37845;SDS011;23686;49.828;8.702;2023-01-29T09:18:34;13.27;;;9.45;;
37845;SDS011;23686;49.828;8.702;2023-01-29T09:21:00;14.93;;;10.10;;
37845;SDS011;23686;49.828;8.702;2023-01-29T09:23:27;11.35;;;9.43;;
37845;SDS011;23686;49.828;8.702;2023-01-29T09:25:53;13.30;;;9.93;;
37845;SDS011;23686;49.828;8.702;2023-01-29T09:28:19;12.00;;;9.55;;
37845;SDS011;23686;49.828;8.702;2023-01-29T09:30:44;11.98;;;10.13;;
37845;SDS011;23686;49.828;8.702;2023-01-29T09:33:10;13.05;;;9.73;;
37845;SDS011;23686;49.828;8.702;2023-01-29T09:35:50;12.52;;;9.52;;
37845;SDS011;23686;49.828;8.702;2023-01-29T09:38:15;12.57;;;9.27;;
37845;SDS011;23686;49.828;8.702;2023-01-29T09:43:12;20.70;;;9.75;;
37845;SDS011;23686;49.828;8.702;2023-01-29T09:45:55;13.63;;;9.90;;
37845;SDS011;23686;49.828;8.702;2023-01-29T09:48:33;13.27;;;10.68;;
37845;SDS011;23686;49.828;8.702;2023-01-29T09:51:02;13.90;;;10.38;;
37845;SDS011;23686;49.828;8.702;2023-01-29T09:53:39;13.40;;;9.80;;
37845;SDS011;23686;49.828;8.702;2023-01-29T09:56:18;13.43;;;10.38;;
37845;SDS011;23686;49.828;8.702;2023-01-29T09:58:45;12.57;;;9.95;;
37845;SDS011;23686;49.828;8.702;2023-01-29T10:15:45;14.05;;;9.57;;
37845;SDS011;23686;49.828;8.702;2023-01-29T10:18:43;12.43;;;9.60;;
37845;SDS011;23686;49.828;8.702;2023-01-29T10:26:52;11.10;;;9.65;;
37845;SDS011;23686;49.828;8.702;2023-01-29T10:29:19;12.55;;;8.63;;
37845;SDS011;23686;49.828;8.702;2023-01-29T10:31:47;10.75;;;9.05;;
37845;SDS011;23686;49.828;8.702;2023-01-29T10:37:25;11.57;;;9.52;;
37845;SDS011;23686;49.828;8.702;2023-01-29T10:40:01;12.30;;;9.57;;
37845;SDS011;23686;49.828;8.702;2023-01-29T10:42:42;13.82;;;10.35;;
37845;SDS011;23686;49.828;8.702;2023-01-29T10:45:18;13.73;;;10.20;;
37845;SDS011;23686;49.828;8.702;2023-01-29T10:48:02;13.65;;;9.77;;
37845;SDS011;23686;49.828;8.702;2023-01-29T10:59:00;17.85;;;11.38;;
37845;SDS011;23686;49.828;8.702;2023-01-29T11:01:50;13.73;;;10.40;;
37845;SDS011;23686;49.828;8.702;2023-01-29T11:04:20;13.18;;;10.10;;
37845;SDS011;23686;49.828;8.702;2023-01-29T11:06:47;15.25;;;10.48;;
37845;SDS011;23686;49.828;8.702;2023-01-29T11:09:25;14.18;;;10.60;;
37845;SDS011;23686;49.828;8.702;2023-01-29T11:11:56;12.18;;;10.27;;
37845;SDS011;23686;49.828;8.702;2023-01-29T11:17:16;17.70;;;11.90;;
37845;SDS011;23686;49.828;8.702;2023-01-29T11:19:44;16.98;;;11.77;;
37845;SDS011;23686;49.828;8.702;2023-01-29T11:22:11;14.88;;;11.65;;
37845;SDS011;23686;49.828;8.702;2023-01-29T11:24:39;14.43;;;10.98;;
37845;SDS011;23686;49.828;8.702;2023-01-29T11:27:12;15.10;;;10.55;;
37845;SDS011;23686;49.828;8.702;2023-01-29T11:29:50;12.27;;;10.18;;
37845;SDS011;23686;49.828;8.702;2023-01-29T11:34:55;14.30;;;10.98;;
37845;SDS011;23686;49.828;8.702;2023-01-29T11:37:44;13.93;;;10.23;;
37845;SDS011;23686;49.828;8.702;2023-01-29T11:42:46;14.18;;;10.88;;
37845;SDS011;23686;49.828;8.702;2023-01-29T11:47:48;15.15;;;10.95;;
37845;SDS011;23686;49.828;8.702;2023-01-29T11:50:24;16.23;;;11.00;;
37845;SDS011;23686;49.828;8.702;2023-01-29T11:52:51;16.75;;;11.50;;
37845;SDS011;23686;49.828;8.702;2023-01-29T11:58:29;14.98;;;11.50;;
37845;SDS011;23686;49.828;8.702;2023-01-29T12:00:38;15.88;;;10.82;;
37845;SDS011;23686;49.828;8.702;2023-01-29T12:03:13;15.50;;;11.90;;
37845;SDS011;23686;49.828;8.702;2023-01-29T12:05:52;14.30;;;10.52;;
37845;SDS011;23686;49.828;8.702;2023-01-29T12:08:20;13.43;;;10.77;;
37845;SDS011;23686;49.828;8.702;2023-01-29T12:10:47;13.75;;;9.75;;
37845;SDS011;23686;49.828;8.702;2023-01-29T12:13:29;15.25;;;10.75;;
37845;SDS011;23686;49.828;8.702;2023-01-29T12:18:45;13.48;;;10.40;;
37845;SDS011;23686;49.828;8.702;2023-01-29T12:26:34;14.50;;;10.38;;
37845;SDS011;23686;49.828;8.702;2023-01-29T12:32:15;17.70;;;11.38;;
37845;SDS011;23686;49.828;8.702;2023-01-29T12:38:19;13.45;;;9.45;;
37845;SDS011;23686;49.828;8.702;2023-01-29T12:40:48;15.85;;;10.43;;
37845;SDS011;23686;49.828;8.702;2023-01-29T12:43:23;14.73;;;10.23;;
37845;SDS011;23686;49.828;8.702;2023-01-29T12:45:57;14.88;;;10.23;;
37845;SDS011;23686;49.828;8.702;2023-01-29T12:48:28;12.93;;;10.13;;
37845;SDS011;23686;49.828;8.702;2023-01-29T12:51:07;15.75;;;11.02;;
37845;SDS011;23686;49.828;8.702;2023-01-29T12:53:53;13.98;;;10.23;;
37845;SDS011;23686;49.828;8.702;2023-01-29T12:56:30;15.80;;;11.30;;
37845;SDS011;23686;49.828;8.702;2023-01-29T12:59:01;12.93;;;9.60;;
37845;SDS011;23686;49.828;8.702;2023-01-29T13:01:52;15.15;;;10.10;;
37845;SDS011;23686;49.828;8.702;2023-01-29T13:06:55;14.60;;;10.07;;
37845;SDS011;23686;49.828;8.702;2023-01-29T13:09:33;14.27;;;9.88;;
37845;SDS011;23686;49.828;8.702;2023-01-29T13:12:35;13.25;;;9.52;;
37845;SDS011;23686;49.828;8.702;2023-01-29T13:15:14;12.85;;;9.05;;
37845;SDS011;23686;49.828;8.702;2023-01-29T13:17:51;12.82;;;9.10;;
37845;SDS011;23686;49.828;8.702;2023-01-29T13:20:23;13.73;;;9.13;;
37845;SDS011;23686;49.828;8.702;2023-01-29T13:22:53;14.23;;;9.77;;
37845;SDS011;23686;49.828;8.702;2023-01-29T13:25:25;13.05;;;9.15;;
37845;SDS011;23686;49.828;8.702;2023-01-29T13:27:51;13.10;;;9.15;;
37845;SDS011;23686;49.828;8.702;2023-01-29T13:30:26;13.93;;;9.77;;
37845;SDS011;23686;49.828;8.702;2023-01-29T13:32:59;15.02;;;10.95;;
37845;SDS011;23686;49.828;8.702;2023-01-29T13:35:41;16.00;;;10.45;;
37845;SDS011;23686;49.828;8.702;2023-01-29T13:38:23;14.55;;;10.20;;
37845;SDS011;23686;49.828;8.702;2023-01-29T13:40:55;13.82;;;10.50;;
37845;SDS011;23686;49.828;8.702;2023-01-29T13:43:25;21.65;;;14.38;;
37845;SDS011;23686;49.828;8.702;2023-01-29T13:45:53;19.95;;;13.80;;
37845;SDS011;23686;49.828;8.702;2023-01-29T13:48:26;16.58;;;12.00;;
37845;SDS011;23686;49.828;8.702;2023-01-29T13:51:01;16.98;;;11.25;;
37845;SDS011;23686;49.828;8.702;2023-01-29T13:53:32;14.98;;;11.15;;
37845;SDS011;23686;49.828;8.702;2023-01-29T13:58:52;18.77;;;12.70;;
37845;SDS011;23686;49.828;8.702;2023-01-29T14:01:24;16.23;;;12.15;;
37845;SDS011;23686;49.828;8.702;2023-01-29T14:10:12;23.02;;;13.10;;
37845;SDS011;23686;49.828;8.702;2023-01-29T14:12:40;22.77;;;13.35;;
37845;SDS011;23686;49.828;8.702;2023-01-29T14:15:17;21.08;;;13.57;;
37845;SDS011;23686;49.828;8.702;2023-01-29T14:22:58;15.93;;;12.38;;
37845;SDS011;23686;49.828;8.702;2023-01-29T14:25:33;12.88;;;10.55;;
37845;SDS011;23686;49.828;8.702;2023-01-29T14:28:02;16.15;;;11.43;;
37845;SDS011;23686;49.828;8.702;2023-01-29T14:30:29;17.38;;;12.57;;
37845;SDS011;23686;49.828;8.702;2023-01-29T14:32:57;20.00;;;12.17;;
37845;SDS011;23686;49.828;8.702;2023-01-29T14:35:27;16.90;;;11.90;;
37845;SDS011;23686;49.828;8.702;2023-01-29T14:37:57;19.60;;;13.13;;
37845;SDS011;23686;49.828;8.702;2023-01-29T14:40:26;14.25;;;11.55;;
37845;SDS011;23686;49.828;8.702;2023-01-29T14:42:59;15.70;;;11.65;;
37845;SDS011;23686;49.828;8.702;2023-01-29T14:45:35;18.83;;;11.80;;
37845;SDS011;23686;49.828;8.702;2023-01-29T14:50:54;17.00;;;12.27;;
37845;SDS011;23686;49.828;8.702;2023-01-29T14:53:24;17.95;;;13.48;;
37845;SDS011;23686;49.828;8.702;2023-01-29T14:55:58;20.00;;;13.00;;
37845;SDS011;23686;49.828;8.702;2023-01-29T15:01:22;26.88;;;18.10;;
37845;SDS011;23686;49.828;8.702;2023-01-29T15:06:43;19.25;;;13.90;;
37845;SDS011;23686;49.828;8.702;2023-01-29T15:09:28;17.52;;;12.57;;
37845;SDS011;23686;49.828;8.702;2023-01-29T15:12:02;17.80;;;12.35;;
37845;SDS011;23686;49.828;8.702;2023-01-29T15:14:40;13.40;;;10.15;;
37845;SDS011;23686;49.828;8.702;2023-01-29T15:19:43;15.73;;;11.27;;
37845;SDS011;23686;49.828;8.702;2023-01-29T15:22:22;20.10;;;10.93;;
37845;SDS011;23686;49.828;8.702;2023-01-29T15:25:04;17.13;;;12.25;;
37845;SDS011;23686;49.828;8.702;2023-01-29T15:27:31;17.55;;;12.65;;
37845;SDS011;23686;49.828;8.702;2023-01-29T15:29:58;18.98;;;12.70;;
37845;SDS011;23686;49.828;8.702;2023-01-29T15:32:26;21.88;;;13.60;;
37845;SDS011;23686;49.828;8.702;2023-01-29T15:35:07;19.65;;;13.13;;
37845;SDS011;23686;49.828;8.702;2023-01-29T15:37:35;23.63;;;14.18;;
37845;SDS011;23686;49.828;8.702;2023-01-29T15:40:02;18.88;;;12.50;;
37845;SDS011;23686;49.828;8.702;2023-01-29T15:42:40;22.35;;;14.55;;
37845;SDS011;23686;49.828;8.702;2023-01-29T15:45:26;20.73;;;13.93;;
37845;SDS011;23686;49.828;8.702;2023-01-29T15:48:01;23.50;;;15.05;;
37845;SDS011;23686;49.828;8.702;2023-01-29T15:50:30;22.83;;;14.48;;
37845;SDS011;23686;49.828;8.702;2023-01-29T15:52:59;23.48;;;14.18;;
37845;SDS011;23686;49.828;8.702;2023-01-29T15:55:27;25.92;;;15.15;;
37845;SDS011;23686;49.828;8.702;2023-01-29T15:57:55;23.60;;;15.23;;
37845;SDS011;23686;49.828;8.702;2023-01-29T16:00:22;21.88;;;14.60;;
37845;SDS011;23686;49.828;8.702;2023-01-29T16:02:51;24.27;;;14.95;;
37845;SDS011;23686;49.828;8.702;2023-01-29T16:05:18;23.33;;;15.00;;
37845;SDS011;23686;49.828;8.702;2023-01-29T16:07:46;22.65;;;15.38;;
37845;SDS011;23686;49.828;8.702;2023-01-29T16:10:15;22.30;;;15.73;;
37845;SDS011;23686;49.828;8.702;2023-01-29T16:12:43;28.75;;;15.65;;
37845;SDS011;23686;49.828;8.702;2023-01-29T16:15:36;24.40;;;15.10;;
37845;SDS011;23686;49.828;8.702;2023-01-29T16:18:03;21.73;;;15.02;;
37845;SDS011;23686;49.828;8.702;2023-01-29T16:20:51;30.17;;;16.58;;
37845;SDS011;23686;49.828;8.702;2023-01-29T16:23:19;26.33;;;16.33;;
37845;SDS011;23686;49.828;8.702;2023-01-29T16:25:55;25.13;;;15.77;;
37845;SDS011;23686;49.828;8.702;2023-01-29T16:28:27;24.55;;;15.48;;
37845;SDS011;23686;49.828;8.702;2023-01-29T16:30:55;25.73;;;15.70;;
37845;SDS011;23686;49.828;8.702;2023-01-29T16:33:22;26.98;;;15.63;;
37845;SDS011;23686;49.828;8.702;2023-01-29T16:35:57;25.08;;;16.08;;
37845;SDS011;23686;49.828;8.702;2023-01-29T16:38:27;27.60;;;16.77;;
37845;SDS011;23686;49.828;8.702;2023-01-29T16:41:41;25.90;;;15.65;;
37845;SDS011;23686;49.828;8.702;2023-01-29T16:43:56;29.90;;;16.52;;
37845;SDS011;23686;49.828;8.702;2023-01-29T16:46:48;27.20;;;16.83;;
37845;SDS011;23686;49.828;8.702;2023-01-29T16:54:59;28.63;;;17.50;;
37845;SDS011;23686;49.828;8.702;2023-01-29T16:57:37;35.08;;;19.45;;
37845;SDS011;23686;49.828;8.702;2023-01-29T17:00:05;32.28;;;19.25;;
37845;SDS011;23686;49.828;8.702;2023-01-29T17:02:37;33.75;;;19.58;;
37845;SDS011;23686;49.828;8.702;2023-01-29T17:05:04;31.80;;;19.35;;
37845;SDS011;23686;49.828;8.702;2023-01-29T17:07:33;30.23;;;18.63;;
37845;SDS011;23686;49.828;8.702;2023-01-29T17:10:02;32.15;;;19.70;;
37845;SDS011;23686;49.828;8.702;2023-01-29T17:12:29;30.77;;;19.98;;
37845;SDS011;23686;49.828;8.702;2023-01-29T17:17:39;28.27;;;18.25;;
37845;SDS011;23686;49.828;8.702;2023-01-29T17:20:11;33.97;;;18.73;;
37845;SDS011;23686;49.828;8.702;2023-01-29T17:25:29;31.65;;;18.73;;
37845;SDS011;23686;49.828;8.702;2023-01-29T17:27:54;29.77;;;19.00;;
37845;SDS011;23686;49.828;8.702;2023-01-29T17:30:21;30.55;;;19.40;;
37845;SDS011;23686;49.828;8.702;2023-01-29T17:32:50;31.83;;;20.73;;
37845;SDS011;23686;49.828;8.702;2023-01-29T17:35:15;32.60;;;19.80;;